createdAt,value
2022-08-03T00:00:29.826Z,97717.84
2022-08-03T00:02:56.685Z,97715.22
2022-08-03T00:05:23.864Z,97722.63
2022-08-03T00:07:50.626Z,97724.78
2022-08-03T00:10:17.549Z,97716.72
2022-08-03T00:12:44.723Z,97716.41
2022-08-03T00:15:16.373Z,97718.38
2022-08-03T00:17:52.795Z,97721.97
2022-08-03T00:20:21.860Z,97729.22
2022-08-03T00:22:51.852Z,97725.94
2022-08-03T00:25:19.122Z,97724.63
2022-08-03T00:27:46.028Z,97732.69
2022-08-03T00:30:16.909Z,97724.44
2022-08-03T00:32:45.332Z,97717.06
2022-08-03T00:35:26.633Z,97727.09
2022-08-03T00:37:59.811Z,97712.59
2022-08-03T00:40:27.396Z,97717.66
2022-08-03T00:43:02.622Z,97721.94
2022-08-03T00:45:36.857Z,97716.00
2022-08-03T00:48:06.248Z,97726.53
2022-08-03T00:50:54.160Z,97718.66
2022-08-03T00:53:21.713Z,97740.66
2022-08-03T00:55:48.944Z,97738.19
2022-08-03T00:58:15.951Z,97731.44
2022-08-03T01:00:42.874Z,97731.28
2022-08-03T01:03:12.563Z,97737.66
2022-08-03T01:05:51.810Z,97735.03
2022-08-03T01:08:37.251Z,97729.75
2022-08-03T01:11:19.069Z,97732.69
2022-08-03T01:14:19.084Z,97736.09
2022-08-03T01:17:25.854Z,97738.41
2022-08-03T01:20:14.627Z,97736.75
2022-08-03T01:23:15.021Z,97727.56
2022-08-03T01:26:06.025Z,97730.47
2022-08-03T01:29:33.399Z,97738.03
2022-08-03T01:32:58.563Z,97737.16
2022-08-03T01:35:32.674Z,97738.63
2022-08-03T01:38:09.839Z,97728.28
2022-08-03T01:40:41.267Z,97731.88
2022-08-03T01:43:12.697Z,97730.53
2022-08-03T01:45:43.714Z,97721.44
2022-08-03T01:48:15.068Z,97726.88
2022-08-03T01:50:45.024Z,97722.75
2022-08-03T01:53:15.539Z,97722.75
2022-08-03T01:55:45.858Z,97727.19
2022-08-03T01:58:16.586Z,97727.63
2022-08-03T02:00:46.186Z,97722.53
2022-08-03T02:03:15.490Z,97721.88
2022-08-03T02:05:45.395Z,97721.06
2022-08-03T02:08:17.852Z,97725.66
2022-08-03T02:10:47.430Z,97724.00
2022-08-03T02:13:19.210Z,97729.53
2022-08-03T02:15:47.400Z,97726.09
2022-08-03T02:18:16.218Z,97726.25
2022-08-03T02:20:44.582Z,97731.00
2022-08-03T02:23:11.506Z,97729.84
2022-08-03T02:25:53.052Z,97722.25
2022-08-03T02:28:26.380Z,97730.44
2022-08-03T02:30:56.694Z,97722.22
2022-08-03T02:33:37.987Z,97720.66
2022-08-03T02:36:07.830Z,97725.84
2022-08-03T02:38:40.860Z,97724.00
2022-08-03T02:41:16.968Z,97727.06
2022-08-03T02:44:07.080Z,97722.13
2022-08-03T02:46:45.069Z,97721.47
2022-08-03T02:49:40.761Z,97726.03
2022-08-03T02:52:05.743Z,97726.03
2022-08-03T02:54:40.607Z,97726.72
2022-08-03T02:57:10.503Z,97718.84
2022-08-03T02:59:40.841Z,97721.47
2022-08-03T03:02:08.719Z,97722.59
2022-08-03T03:04:36.339Z,97720.28
2022-08-03T03:07:03.760Z,97725.66
2022-08-03T03:09:40.523Z,97725.00
2022-08-03T03:12:13.370Z,97724.31
2022-08-03T03:14:40.834Z,97724.31
2022-08-03T03:17:11.208Z,97731.53
2022-08-03T03:19:41.307Z,97729.88
2022-08-03T03:22:09.612Z,97732.81
2022-08-03T03:24:39.671Z,97739.59
2022-08-03T03:27:06.823Z,97736.59
2022-08-03T03:29:39.503Z,97739.50
2022-08-03T03:32:08.353Z,97732.78
2022-08-03T03:34:37.471Z,97739.00
2022-08-03T03:37:05.093Z,97739.81
2022-08-03T03:39:32.247Z,97735.84
2022-08-03T03:42:00.994Z,97745.00
2022-08-03T03:44:31.238Z,97743.63
2022-08-03T03:46:58.582Z,97738.03
2022-08-03T03:49:26.887Z,97741.63
2022-08-03T03:51:56.657Z,97744.53
2022-08-03T03:54:25.452Z,97739.56
2022-08-03T03:56:56.186Z,97749.25
2022-08-03T03:59:23.025Z,97744.81
2022-08-03T04:01:58.869Z,97743.84
2022-08-03T04:04:44.450Z,97747.03
2022-08-03T04:07:29.731Z,97750.97
2022-08-03T04:10:16.216Z,97747.38
2022-08-03T04:12:50.375Z,97754.44
2022-08-03T04:15:23.950Z,97751.44
2022-08-03T04:17:55.846Z,97748.00
2022-08-03T04:20:26.230Z,97748.00
2022-08-03T04:22:55.739Z,97754.34
2022-08-03T04:25:28.015Z,97749.09
2022-08-03T04:28:08.095Z,97749.78
2022-08-03T04:30:50.759Z,97749.78
2022-08-03T04:33:19.373Z,97754.06
2022-08-03T04:36:01.070Z,97749.09
2022-08-03T04:38:38.621Z,97756.94
2022-08-03T04:41:07.339Z,97760.28
2022-08-03T04:43:35.997Z,97764.91
2022-08-03T04:46:04.430Z,97767.91
2022-08-03T04:48:31.396Z,97769.78
2022-08-03T04:51:00.710Z,97773.34
2022-08-03T04:53:28.610Z,97776.00
2022-08-03T04:55:55.349Z,97770.88
2022-08-03T04:58:22.108Z,97777.88
2022-08-03T05:00:51.249Z,97777.09
2022-08-03T05:03:19.469Z,97772.06
2022-08-03T05:05:52.344Z,97773.09
2022-08-03T05:08:27.826Z,97770.69
2022-08-03T05:10:59.177Z,97771.56
2022-08-03T05:13:29.013Z,97776.72
2022-08-03T05:15:56.074Z,97773.03
2022-08-03T05:18:22.918Z,97776.38
2022-08-03T05:20:49.752Z,97777.78
2022-08-03T05:23:16.561Z,97776.84
2022-08-03T05:25:50.134Z,97778.88
2022-08-03T05:28:17.238Z,97780.69
2022-08-03T05:30:44.019Z,97782.56
2022-08-03T05:33:11.354Z,97780.63
2022-08-03T05:35:57.624Z,97787.59
2022-08-03T05:38:28.565Z,97790.88
2022-08-03T05:41:21.961Z,97785.34
2022-08-03T05:43:48.266Z,97779.63
2022-08-03T05:46:15.322Z,97785.09
2022-08-03T05:48:42.977Z,97776.75
2022-08-03T05:51:11.387Z,97783.19
2022-08-03T05:53:39.662Z,97778.25
2022-08-03T05:56:14.220Z,97787.47
2022-08-03T05:58:48.586Z,97788.81
2022-08-03T06:01:17.319Z,97785.66
2022-08-03T06:03:45.933Z,97774.63
2022-08-03T06:06:12.790Z,97780.22
2022-08-03T06:08:41.711Z,97782.53
2022-08-03T06:11:09.617Z,97777.56
2022-08-03T06:13:36.718Z,97788.03
2022-08-03T06:16:03.956Z,97778.59
2022-08-03T06:18:30.871Z,97785.47
2022-08-03T06:20:57.735Z,97785.06
2022-08-03T06:23:54.109Z,97790.41
2022-08-03T06:26:22.734Z,97781.88
2022-08-03T06:28:52.998Z,97779.56
2022-08-03T06:31:32.916Z,97786.88
2022-08-03T06:34:31.426Z,97784.53
2022-08-03T06:36:53.004Z,97786.88
2022-08-03T06:39:21.114Z,97779.59
2022-08-03T06:41:50.979Z,97784.94
2022-08-03T06:44:17.783Z,97784.75
2022-08-03T06:46:45.636Z,97782.09
2022-08-03T06:49:12.823Z,97776.22
2022-08-03T06:52:04.476Z,97774.00
2022-08-03T06:54:26.439Z,97769.41
2022-08-03T06:56:54.426Z,97778.59
2022-08-03T07:00:10.148Z,97773.47
2022-08-03T07:02:09.668Z,97781.75
2022-08-03T07:04:36.502Z,97772.97
2022-08-03T07:07:03.596Z,97775.53
2022-08-03T07:09:30.422Z,97781.56
2022-08-03T07:11:57.384Z,97781.06
2022-08-03T07:14:24.157Z,97788.38
2022-08-03T07:16:50.899Z,97775.97
2022-08-03T07:19:17.707Z,97783.81
2022-08-03T07:21:45.350Z,97783.47
2022-08-03T07:24:12.123Z,97786.44
2022-08-03T07:26:38.914Z,97779.75
2022-08-03T07:29:14.909Z,97775.06
2022-08-03T07:31:42.658Z,97777.78
2022-08-03T07:34:09.462Z,97774.69
2022-08-03T07:36:36.261Z,97769.03
2022-08-03T07:39:16.020Z,97771.69
2022-08-03T07:41:46.143Z,97773.09
2022-08-03T07:44:13.579Z,97766.94
2022-08-03T07:46:40.388Z,97773.28
2022-08-03T07:49:07.251Z,97779.44
2022-08-03T07:51:34.279Z,97770.59
2022-08-03T07:54:01.383Z,97767.28
2022-08-03T07:56:28.810Z,97767.19
2022-08-03T07:58:56.434Z,97766.94
2022-08-03T08:01:23.608Z,97765.84
2022-08-03T08:03:53.359Z,97760.06
2022-08-03T08:06:21.737Z,97755.66
2022-08-03T08:08:48.706Z,97754.72
2022-08-03T08:11:15.645Z,97762.28
2022-08-03T08:13:42.406Z,97752.34
2022-08-03T08:16:09.162Z,97753.00
2022-08-03T08:18:35.902Z,97752.22
2022-08-03T08:21:03.358Z,97745.50
2022-08-03T08:23:42.479Z,97743.91
2022-08-03T08:26:11.900Z,97738.78
2022-08-03T08:28:38.980Z,97736.78
2022-08-03T08:31:05.896Z,97737.25
2022-08-03T08:34:01.489Z,97733.00
2022-08-03T08:36:21.351Z,97727.63
2022-08-03T08:38:48.698Z,97732.81
2022-08-03T08:41:16.205Z,97731.47
2022-08-03T08:43:43.470Z,97734.69
2022-08-03T08:46:23.977Z,97734.25
2022-08-03T08:48:52.728Z,97729.03
2022-08-03T08:51:22.458Z,97729.28
2022-08-03T08:53:53.692Z,97726.13
2022-08-03T08:56:25.276Z,97729.28
2022-08-03T08:58:56.651Z,97719.38
2022-08-03T09:01:23.691Z,97718.69
2022-08-03T09:03:51.252Z,97715.84
2022-08-03T09:06:18.008Z,97708.97
2022-08-03T09:08:44.931Z,97707.97
2022-08-03T09:11:12.304Z,97712.50
2022-08-03T09:13:39.799Z,97714.34
2022-08-03T09:16:22.462Z,97708.81
2022-08-03T09:18:55.069Z,97704.94
2022-08-03T09:21:33.344Z,97702.81
2022-08-03T09:24:05.847Z,97702.13
2022-08-03T09:26:36.999Z,97709.31
2022-08-03T09:29:14.790Z,97711.84
2022-08-03T09:31:46.884Z,97701.34
2022-08-03T09:34:17.353Z,97699.63
2022-08-03T09:36:50.596Z,97707.84
2022-08-03T09:39:19.494Z,97698.16
2022-08-03T09:42:08.470Z,97697.03
2022-08-03T09:44:44.068Z,97697.03
2022-08-03T09:47:13.581Z,97700.28
2022-08-03T09:49:42.657Z,97687.25
2022-08-03T09:52:49.433Z,97689.56
2022-08-03T09:56:33.103Z,97686.75
2022-08-03T09:58:09.429Z,97686.88
2022-08-03T10:01:05.356Z,97685.59
2022-08-03T10:04:03.064Z,97686.72
2022-08-03T10:06:28.970Z,97681.03
2022-08-03T10:09:28.270Z,97681.38
2022-08-03T10:11:55.725Z,97661.97
2022-08-03T10:14:23.597Z,97668.06
2022-08-03T10:16:50.456Z,97673.94
2022-08-03T10:19:17.772Z,97667.53
2022-08-03T10:21:53.599Z,97660.22
2022-08-03T10:24:30.656Z,97661.50
2022-08-03T10:27:03.992Z,97657.78
2022-08-03T10:29:37.955Z,97655.72
2022-08-03T10:32:18.954Z,97656.47
2022-08-03T10:34:50.942Z,97655.53
2022-08-03T10:37:32.106Z,97660.22
2022-08-03T10:40:00.887Z,97648.28
2022-08-03T10:42:31.356Z,97650.03
2022-08-03T10:45:17.883Z,97645.78
2022-08-03T10:47:49.590Z,97642.00
2022-08-03T10:50:17.155Z,97642.47
2022-08-03T10:53:06.996Z,97636.53
2022-08-03T10:56:01.748Z,97635.31
2022-08-03T10:58:37.903Z,97631.28
2022-08-03T11:02:00.042Z,97622.25
2022-08-03T11:04:29.529Z,97623.38
2022-08-03T11:07:21.653Z,97621.00
2022-08-03T11:09:52.196Z,97619.34
2022-08-03T11:12:28.646Z,97619.59
2022-08-03T11:15:06.620Z,97622.84
2022-08-03T11:17:46.217Z,97616.69
2022-08-03T11:20:54.741Z,97609.22
2022-08-03T11:24:02.432Z,97600.56
2022-08-03T11:26:31.144Z,97594.34
2022-08-03T11:29:30.826Z,97603.53
2022-08-03T11:31:58.232Z,97598.00
2022-08-03T11:34:25.647Z,97592.13
2022-08-03T11:37:23.665Z,97594.63
2022-08-03T11:39:55.005Z,97597.63
2022-08-03T11:42:25.417Z,97594.41
2022-08-03T11:44:55.064Z,97592.28
2022-08-03T11:47:24.295Z,97596.06
2022-08-03T11:49:54.829Z,97581.44
2022-08-03T11:52:27.005Z,97596.03
2022-08-03T11:54:56.637Z,97584.16
2022-08-03T11:59:19.543Z,97590.03
2022-08-03T12:00:28.369Z,97579.09
2022-08-03T12:03:08.615Z,97573.56
2022-08-03T12:05:52.781Z,97575.69
2022-08-03T12:08:33.008Z,97572.03
2022-08-03T12:11:02.899Z,97563.84
2022-08-03T12:14:35.761Z,97559.25
2022-08-03T12:16:28.641Z,97555.41
2022-08-03T12:19:03.669Z,97551.88
2022-08-03T12:21:30.891Z,97553.16
2022-08-03T12:24:01.282Z,97553.91
2022-08-03T12:26:30.722Z,97550.63
2022-08-03T12:28:58.387Z,97551.94
2022-08-03T12:31:25.631Z,97554.13
2022-08-03T12:33:56.997Z,97551.38
2022-08-03T12:36:24.100Z,97551.38
2022-08-03T12:39:03.283Z,97544.97
2022-08-03T12:41:40.767Z,97540.25
2022-08-03T12:44:09.510Z,97544.47
2022-08-03T12:46:46.962Z,97553.28
2022-08-03T12:49:18.540Z,97549.81
2022-08-03T12:51:45.330Z,97537.53
2022-08-03T12:54:25.152Z,97537.81
2022-08-03T12:57:02.341Z,97539.16
2022-08-03T12:59:35.157Z,97529.28
2022-08-03T13:02:09.825Z,97527.34
2022-08-03T13:04:36.923Z,97525.94
2022-08-03T13:07:17.936Z,97516.84
2022-08-03T13:09:56.269Z,97514.84
2022-08-03T13:12:29.808Z,97514.53
2022-08-03T13:14:59.710Z,97514.41
2022-08-03T13:17:27.763Z,97514.53
2022-08-03T13:19:55.844Z,97509.47
2022-08-03T13:22:26.073Z,97513.31
2022-08-03T13:24:58.175Z,97498.75
2022-08-03T13:28:13.828Z,97513.41
2022-08-03T13:30:13.314Z,97504.41
2022-08-03T13:32:40.184Z,97513.50
2022-08-03T13:35:09.233Z,97510.75
2022-08-03T13:37:37.139Z,97502.91
2022-08-03T13:40:07.133Z,97510.00
2022-08-03T13:42:36.583Z,97498.16
2022-08-03T13:45:04.547Z,97500.31
2022-08-03T13:47:31.895Z,97503.13
2022-08-03T13:50:01.437Z,97505.28
2022-08-03T13:52:30.948Z,97496.03
2022-08-03T13:54:58.435Z,97499.50
2022-08-03T13:58:18.998Z,97482.72
2022-08-03T14:00:13.041Z,97493.16
2022-08-03T14:02:53.997Z,97492.84
2022-08-03T14:05:23.098Z,97486.00
2022-08-03T14:07:49.899Z,97482.47
2022-08-03T14:10:17.580Z,97481.13
2022-08-03T14:12:44.409Z,97476.88
2022-08-03T14:15:12.955Z,97477.69
2022-08-03T14:17:49.616Z,97473.16
2022-08-03T14:20:25.960Z,97469.69
2022-08-03T14:23:04.251Z,97470.41
2022-08-03T14:25:31.663Z,97470.22
2022-08-03T14:28:10.426Z,97466.66
2022-08-03T14:30:37.229Z,97463.13
2022-08-03T14:33:04.229Z,97466.97
2022-08-03T14:35:31.110Z,97467.16
2022-08-03T14:37:57.878Z,97466.19
2022-08-03T14:40:24.841Z,97457.94
2022-08-03T14:42:51.608Z,97466.94
2022-08-03T14:45:19.954Z,97470.13
2022-08-03T14:50:26.510Z,97462.13
2022-08-03T14:50:42.101Z,97468.63
2022-08-03T14:53:11.172Z,97465.97
2022-08-03T14:55:39.005Z,97466.88
2022-08-03T14:58:23.142Z,97463.16
2022-08-03T15:00:54.114Z,97456.84
2022-08-03T15:03:25.643Z,97449.78
2022-08-03T15:05:55.868Z,97443.84
2022-08-03T15:08:25.169Z,97440.78
2022-08-03T15:10:53.732Z,97442.47
2022-08-03T15:13:21.228Z,97436.16
2022-08-03T15:15:49.492Z,97434.19
2022-08-03T15:18:16.327Z,97427.16
2022-08-03T15:20:45.423Z,97426.34
2022-08-03T15:23:15.163Z,97418.72
2022-08-03T15:26:03.273Z,97419.91
2022-08-03T15:28:31.518Z,97399.56
2022-08-03T15:30:58.426Z,97415.13
2022-08-03T15:33:25.268Z,97418.97
2022-08-03T15:35:52.911Z,97412.66
2022-08-03T15:38:19.931Z,97408.34
2022-08-03T15:40:46.728Z,97421.28
2022-08-03T15:43:13.608Z,97398.00
2022-08-03T15:45:40.574Z,97397.22
2022-08-03T15:48:08.932Z,97405.91
2022-08-03T15:50:35.729Z,97399.63
2022-08-03T15:53:03.374Z,97397.16
2022-08-03T15:55:31.108Z,97405.28
2022-08-03T15:59:04.578Z,97399.47
2022-08-03T16:00:45.474Z,97393.31
2022-08-03T16:03:12.212Z,97393.31
2022-08-03T16:05:39.157Z,97391.63
2022-08-03T16:08:10.291Z,97396.53
2022-08-03T16:10:40.568Z,97382.28
2022-08-03T16:13:07.972Z,97383.28
2022-08-03T16:15:38.618Z,97385.25
2022-08-03T16:18:09.426Z,97388.25
2022-08-03T16:20:36.642Z,97388.28
2022-08-03T16:23:10.702Z,97386.84
2022-08-03T16:25:42.741Z,97379.94
2022-08-03T16:28:14.373Z,97381.38
2022-08-03T16:30:45.161Z,97380.41
2022-08-03T16:33:14.768Z,97371.84
2022-08-03T16:35:44.056Z,97372.41
2022-08-03T16:38:15.234Z,97371.53
2022-08-03T16:40:46.817Z,97366.06
2022-08-03T16:43:18.904Z,97368.63
2022-08-03T16:45:47.587Z,97364.66
2022-08-03T16:48:18.491Z,97371.81
2022-08-03T16:50:45.982Z,97374.06
2022-08-03T16:53:17.082Z,97358.22
2022-08-03T16:55:59.991Z,97352.94
2022-08-03T16:58:34.903Z,97353.56
2022-08-03T17:01:21.770Z,97364.22
2022-08-03T17:04:03.565Z,97377.25
2022-08-03T17:06:44.683Z,97377.28
2022-08-03T17:09:17.967Z,97380.00
2022-08-03T17:11:47.830Z,97375.91
2022-08-03T17:14:17.518Z,97379.72
2022-08-03T17:16:52.449Z,97377.81
2022-08-03T17:19:23.792Z,97373.25
2022-08-03T17:22:16.113Z,97380.53
2022-08-03T17:24:51.556Z,97381.88
2022-08-03T17:28:50.422Z,97382.13
2022-08-03T17:30:15.730Z,97379.13
2022-08-03T17:32:52.694Z,97393.94
2022-08-03T17:35:34.475Z,97389.06
2022-08-03T17:38:06.736Z,97386.63
2022-08-03T17:40:37.986Z,97389.06
2022-08-03T17:44:14.508Z,97384.13
2022-08-03T17:45:54.763Z,97380.59
2022-08-03T17:48:25.022Z,97387.28
2022-08-03T17:51:03.717Z,97382.66
2022-08-03T17:53:37.902Z,97388.31
2022-08-03T17:56:46.686Z,97387.94
2022-08-03T17:59:51.918Z,97387.66
2022-08-03T18:03:12.586Z,97385.44
2022-08-03T18:06:10.901Z,97387.56
2022-08-03T18:08:43.639Z,97391.56
2022-08-03T18:11:16.626Z,97392.84
2022-08-03T18:14:16.508Z,97400.63
2022-08-03T18:16:57.784Z,97406.69
2022-08-03T18:20:02.082Z,97400.69
2022-08-03T18:22:20.408Z,97404.34
2022-08-03T18:24:49.882Z,97399.84
2022-08-03T18:27:16.791Z,97411.53
2022-08-03T18:29:47.187Z,97404.31
2022-08-03T18:32:16.868Z,97401.91
2022-08-03T18:34:53.595Z,97399.53
2022-08-03T18:37:25.761Z,97407.63
2022-08-03T18:39:58.118Z,97405.69
2022-08-03T18:42:26.233Z,97409.69
2022-08-03T18:44:56.507Z,97416.63
2022-08-03T18:47:59.359Z,97412.47
2022-08-03T18:50:40.972Z,97414.81
2022-08-03T18:54:04.075Z,97418.50
2022-08-03T18:56:49.053Z,97422.94
2022-08-03T18:59:30.821Z,97427.44
2022-08-03T19:02:06.496Z,97416.66
2022-08-03T19:04:46.493Z,97422.50
2022-08-03T19:07:24.952Z,97433.94
2022-08-03T19:10:03.504Z,97430.94
2022-08-03T19:12:41.378Z,97429.28
2022-08-03T19:15:15.584Z,97443.16
2022-08-03T19:17:53.707Z,97443.03
2022-08-03T19:20:28.728Z,97436.53
2022-08-03T19:22:59.349Z,97437.53
2022-08-03T19:25:34.720Z,97453.53
2022-08-03T19:28:06.270Z,97451.88
2022-08-03T19:30:46.382Z,97452.88
2022-08-03T19:33:24.362Z,97453.88
2022-08-03T19:35:57.203Z,97445.56
2022-08-03T19:38:28.238Z,97453.66
2022-08-03T19:41:02.990Z,97455.84
2022-08-03T19:43:53.907Z,97456.72
2022-08-03T19:46:31.647Z,97461.81
2022-08-03T19:49:14.560Z,97450.47
2022-08-03T19:54:53.961Z,97461.09
2022-08-03T19:57:26.967Z,97463.25
2022-08-03T19:59:55.715Z,97459.84
2022-08-03T20:02:26.223Z,97471.81
2022-08-03T20:04:56.828Z,97462.28
2022-08-03T20:07:25.839Z,97469.75
2022-08-03T20:09:56.559Z,97459.19
2022-08-03T20:12:27.788Z,97470.69
2022-08-03T20:14:59.402Z,97474.91
2022-08-03T20:17:54.648Z,97466.34
2022-08-03T20:20:19.275Z,97471.34
2022-08-03T20:22:52.744Z,97473.47
2022-08-03T20:25:38.934Z,97475.59
2022-08-03T20:28:15.409Z,97472.13
2022-08-03T20:30:46.337Z,97467.44
2022-08-03T20:33:19.063Z,97472.63
2022-08-03T20:35:50.218Z,97476.97
2022-08-03T20:38:19.969Z,97469.00
2022-08-03T20:40:54.330Z,97472.94
2022-08-03T20:43:21.878Z,97470.53
2022-08-03T20:45:58.417Z,97469.75
2022-08-03T20:48:28.621Z,97470.59
2022-08-03T20:50:56.389Z,97462.41
2022-08-03T20:53:56.773Z,97469.63
2022-08-03T20:56:10.259Z,97467.75
2022-08-03T20:58:37.849Z,97466.56
2022-08-03T21:01:08.613Z,97471.72
2022-08-03T21:03:40.976Z,97469.28
2022-08-03T21:06:27.810Z,97471.16
2022-08-03T21:09:05.172Z,97466.88
2022-08-03T21:11:51.026Z,97460.94
2022-08-03T21:13:03.089Z,97459.00
2022-08-03T21:14:29.824Z,97462.59
2022-08-03T21:16:59.330Z,97469.53
2022-08-03T21:19:31.374Z,97467.94
2022-08-03T21:21:59.609Z,97469.97
2022-08-03T21:24:30.454Z,97467.53
2022-08-03T21:26:58.193Z,97471.00
2022-08-03T21:29:25.048Z,97468.16
2022-08-03T21:31:51.839Z,97460.56
2022-08-03T21:34:20.597Z,97467.31
2022-08-03T21:36:47.485Z,97469.19
2022-08-03T21:39:14.311Z,97482.22
2022-08-03T21:41:41.514Z,97473.47
2022-08-03T21:44:08.934Z,97479.38
2022-08-03T21:46:40.678Z,97483.25
2022-08-03T21:50:04.710Z,97484.25
2022-08-03T21:52:05.409Z,97478.91
2022-08-03T21:54:37.442Z,97479.09
2022-08-03T21:57:25.047Z,97487.88
2022-08-03T22:00:01.395Z,97493.59
2022-08-03T22:02:32.120Z,97479.28
2022-08-03T22:04:59.539Z,97482.53
2022-08-03T22:07:28.984Z,97481.31
2022-08-03T22:09:58.004Z,97479.25
2022-08-03T22:12:28.226Z,97485.38
2022-08-03T22:15:01.446Z,97476.34
2022-08-03T22:17:55.241Z,97480.63
2022-08-03T22:20:20.176Z,97478.75
2022-08-03T22:22:56.038Z,97474.88
2022-08-03T22:25:33.032Z,97480.78
2022-08-03T22:28:07.476Z,97483.81
2022-08-03T22:30:35.389Z,97485.19
2022-08-03T22:33:05.697Z,97492.13
2022-08-03T22:35:50.303Z,97486.78
2022-08-03T22:38:18.545Z,97495.53
2022-08-03T22:40:50.688Z,97489.81
2022-08-03T22:43:17.537Z,97488.53
2022-08-03T22:46:09.888Z,97497.91
2022-08-03T22:48:40.826Z,97501.16
2022-08-03T22:51:09.456Z,97502.53
2022-08-03T22:53:36.861Z,97505.78
2022-08-03T22:56:04.200Z,97498.03
2022-08-03T22:58:31.033Z,97495.94
2022-08-03T23:01:11.067Z,97507.13
2022-08-03T23:04:00.341Z,97510.56
2022-08-03T23:06:37.437Z,97505.22
2022-08-03T23:09:12.472Z,97509.44
2022-08-03T23:11:46.070Z,97516.91
2022-08-03T23:14:18.423Z,97511.19
2022-08-03T23:16:47.270Z,97512.59
2022-08-03T23:19:25.722Z,97520.13
2022-08-03T23:22:02.929Z,97517.00
2022-08-03T23:24:34.840Z,97522.06
2022-08-03T23:27:04.906Z,97525.31
2022-08-03T23:29:38.378Z,97518.91
2022-08-03T23:32:06.792Z,97513.41
2022-08-03T23:34:52.969Z,97520.25
2022-08-03T23:37:20.387Z,97518.19
2022-08-03T23:39:48.787Z,97518.91
2022-08-03T23:42:19.385Z,97518.69
2022-08-03T23:44:46.570Z,97522.53
2022-08-03T23:47:14.140Z,97521.09
2022-08-03T23:49:41.460Z,97517.34
2022-08-03T23:52:22.317Z,97519.56
2022-08-03T23:55:22.289Z,97511.34
2022-08-03T23:58:28.142Z,97524.28
